EHEH/EIN METAR and TAF weather

Enter ICAO airport designator
Station Type Date Time Source
EHEH METAR 2019/10/21 22:31 UTC NOAA

EHEH 212231Z AUTO 19008KT 160V230 7000 BR SCT014 BKN018 BKN022 12/10 Q1020 GRN


Station Type Date Time Source
EHEH Decoded METAR 2019/10/21 22:31 UTC NOAA

Eindhoven, Netherlands (EHEH) 51-27N 005-25E 28M
Oct 21, 2019 - 06:31 PM EDT / 2019.10.21 2231 UTC
Wind: from the S (190 degrees) at 9 MPH (8 KT) (direction variable):0
Visibility: 4 mile(s):0
Sky conditions: mostly cloudy
Weather: mist
Temperature: 53 F (12 C)
Dew Point: 50 F (10 C)
Relative Humidity: 87%
Pressure (altimeter): 30.12 in. Hg (1020 hPa)
ob: EHEH 212231Z AUTO 19008KT 160V230 7000 BR SCT014 BKN018 BKN022 12/10 Q1020 GRN
cycle: 22

Station Type Date Time Source
EHEH TAF 2019/10/21 18:26 UTC NOAA

TAF EHEH 211700Z 2118/2224 18006KT 9999 BKN025 BKN040
BECMG 2120/2123 FEW005 SCT010 BKN015
TEMPO 2123/2210 SCT005 BKN010 PROB40
TEMPO 2200/2210 3000 BR SCT003 BKN005
BECMG 2209/2211 FEW012 SCT015 BKN020
BECMG 2211/2213 FEW018 SCT025
BECMG 2215/2218 VRB03KT
BECMG 2219/2224 4000 BR PROB30 2222/2224 0800 BCFG

Example: see airport list